Weather at Byrd's Backcountry Airstrip

Public forecast

Using degrees Fahrenheit for public forecast. Weather courtesy of forecast.io.

Closest aviation weather report (METAR) to Byrd's Backcountry Airstrip

Closest report is Drake Field, 29.0 nm (53.7 km) NW. Retrieved 2022/07/04 03:53 UTC (1 hour ago):

KFYV 040353Z AUTO 00000KT 9SM CLR 24/22 A3005 RMK AO2 SLP159 T02440222

Closest aviation forecast (TAF) to Byrd's Backcountry Airstrip

Closest forecast is Drake Field, 29.0 nm (53.7 km) NW. Retrieved 2022-07-04 00:27 UTC (5 hours ago):

TAF KFYV 032324Z 0400/0424 16005KT P6SM VCTS BKN050CB BKN100 TEMPO 0400/0402 3SM -TSRA BKN040CB FM040200 00000KT P6SM SCT100 FM041500 19010KT P6SM SCT040